Central, Alaska
Current Conditions -  °F | °C
As of 1:56 PM on Tuesday 25 Nov 2014 (Local Time) from PFYU Reporting Station
Overcast Overcast  
Wind Chill:   Ceiling: 3000
Heat Index:   Visibility: 7mi
Dew Point: -4°   Wind: 0mph
Humidity: 78%   Direction: NA
Pressure: 30.25"   Gusts: NA
Location:  65.57°N, 144.81°W
Report Text: PFYU 252256Z 00000KT 7SM FEW019 OVC030 M17/M20 A3025 RMK AO1 WX;-SHSN
Loading
Personal Weather Stations






























Interactive Weather Map New forecast layout! Learn more

10-Day Weather Forecast

Advertisements
Track Severe Weather on mobile